Shoreacres, Texas
Current Conditions -  °F | °C
As of 9:50 AM on Monday 24 Nov 2014 (Local Time) from KEFD Reporting Station
Clear Clear  
Wind Chill: 14°   Ceiling: Unl
Heat Index: 14°   Visibility: 10mi
Dew Point:   Wind: 18mph
Humidity: 44%   Direction: 350°N
Pressure: 30.04"   Gusts: NA
Location:  29.6785°N, 95.0483°W
Report Text: KEFD 241550Z 35016KT 10SM CLR 14/02 A3004
Loading
Personal Weather Stations






























Interactive Weather Map New forecast layout! Learn more

10-Day Weather Forecast

Advertisements
Track Severe Weather on mobile